sensor_id;sensor_type;location;lat;lon;timestamp;temperature;humidity
22633;DHT22;11483;55.828;37.488;2024-01-06T00:02:20;-14.20;99.90
22633;DHT22;11483;55.828;37.488;2024-01-06T00:04:46;-14.70;99.90
22633;DHT22;11483;55.828;37.488;2024-01-06T00:07:12;-14.80;99.90
22633;DHT22;11483;55.828;37.488;2024-01-06T00:09:39;-14.80;99.90
22633;DHT22;11483;55.828;37.488;2024-01-06T00:12:05;-14.70;99.90
22633;DHT22;11483;55.828;37.488;2024-01-06T00:14:31;-14.80;99.90
22633;DHT22;11483;55.828;37.488;2024-01-06T00:16:57;-14.80;99.90
22633;DHT22;11483;55.828;37.488;2024-01-06T00:19:23;-14.80;99.90
22633;DHT22;11483;55.828;37.488;2024-01-06T00:21:49;-14.80;99.90
22633;DHT22;11483;55.828;37.488;2024-01-06T00:24:15;-14.70;99.90
22633;DHT22;11483;55.828;37.488;2024-01-06T00:26:41;-14.70;99.90
22633;DHT22;11483;55.828;37.488;2024-01-06T00:29:07;-14.70;99.90
22633;DHT22;11483;55.828;37.488;2024-01-06T00:31:33;-14.70;99.90
22633;DHT22;11483;55.828;37.488;2024-01-06T00:33:59;-14.80;99.90
22633;DHT22;11483;55.828;37.488;2024-01-06T00:36:24;-14.80;99.90
22633;DHT22;11483;55.828;37.488;2024-01-06T00:38:50;-14.90;99.90
22633;DHT22;11483;55.828;37.488;2024-01-06T00:41:16;-14.20;99.90
22633;DHT22;11483;55.828;37.488;2024-01-06T00:43:42;-14.40;99.90
22633;DHT22;11483;55.828;37.488;2024-01-06T00:46:08;-14.70;99.90
22633;DHT22;11483;55.828;37.488;2024-01-06T00:48:34;-14.70;99.90
22633;DHT22;11483;55.828;37.488;2024-01-06T00:51:00;-14.10;99.90
22633;DHT22;11483;55.828;37.488;2024-01-06T00:53:26;-14.60;99.90
22633;DHT22;11483;55.828;37.488;2024-01-06T00:55:52;-14.60;99.90
22633;DHT22;11483;55.828;37.488;2024-01-06T00:58:18;-14.60;99.90
22633;DHT22;11483;55.828;37.488;2024-01-06T01:00:44;-14.50;99.90
22633;DHT22;11483;55.828;37.488;2024-01-06T01:03:10;-14.60;99.90
22633;DHT22;11483;55.828;37.488;2024-01-06T01:05:36;-14.60;99.90
22633;DHT22;11483;55.828;37.488;2024-01-06T01:08:02;-14.60;99.90
22633;DHT22;11483;55.828;37.488;2024-01-06T01:10:28;-14.50;99.90
22633;DHT22;11483;55.828;37.488;2024-01-06T01:12:54;-14.50;99.90
22633;DHT22;11483;55.828;37.488;2024-01-06T01:15:20;-14.50;99.90
22633;DHT22;11483;55.828;37.488;2024-01-06T01:17:46;-14.50;99.90
22633;DHT22;11483;55.828;37.488;2024-01-06T01:20:11;-14.50;99.90
22633;DHT22;11483;55.828;37.488;2024-01-06T01:22:37;-14.50;99.90
22633;DHT22;11483;55.828;37.488;2024-01-06T01:25:03;-14.20;99.90
22633;DHT22;11483;55.828;37.488;2024-01-06T01:27:34;-14.50;99.90
22633;DHT22;11483;55.828;37.488;2024-01-06T01:30:00;-14.40;99.90
22633;DHT22;11483;55.828;37.488;2024-01-06T01:32:25;-14.50;99.90
22633;DHT22;11483;55.828;37.488;2024-01-06T01:34:52;-14.40;99.90
22633;DHT22;11483;55.828;37.488;2024-01-06T01:37:18;-14.30;99.90
22633;DHT22;11483;55.828;37.488;2024-01-06T01:39:44;-14.20;99.90
22633;DHT22;11483;55.828;37.488;2024-01-06T01:42:09;-14.20;99.90
22633;DHT22;11483;55.828;37.488;2024-01-06T01:44:35;-14.30;99.90
22633;DHT22;11483;55.828;37.488;2024-01-06T01:47:04;-14.20;99.90
22633;DHT22;11483;55.828;37.488;2024-01-06T01:49:30;-14.30;99.90
22633;DHT22;11483;55.828;37.488;2024-01-06T01:51:56;-14.30;99.90
22633;DHT22;11483;55.828;37.488;2024-01-06T01:54:22;-14.30;99.90
22633;DHT22;11483;55.828;37.488;2024-01-06T01:56:48;-14.20;99.90
22633;DHT22;11483;55.828;37.488;2024-01-06T01:59:18;-14.30;99.90
22633;DHT22;11483;55.828;37.488;2024-01-06T02:01:47;-14.20;99.90
22633;DHT22;11483;55.828;37.488;2024-01-06T02:04:13;-14.50;99.90
22633;DHT22;11483;55.828;37.488;2024-01-06T02:06:39;-14.30;99.90
22633;DHT22;11483;55.828;37.488;2024-01-06T02:09:05;-14.30;99.90
22633;DHT22;11483;55.828;37.488;2024-01-06T02:11:31;-14.30;99.90
22633;DHT22;11483;55.828;37.488;2024-01-06T02:13:57;-14.40;99.90
22633;DHT22;11483;55.828;37.488;2024-01-06T02:16:23;-14.30;99.90
22633;DHT22;11483;55.828;37.488;2024-01-06T02:18:49;-14.30;99.90
22633;DHT22;11483;55.828;37.488;2024-01-06T02:21:15;-14.00;99.90
22633;DHT22;11483;55.828;37.488;2024-01-06T02:23:41;-14.30;99.90
22633;DHT22;11483;55.828;37.488;2024-01-06T02:26:07;-14.30;99.90
22633;DHT22;11483;55.828;37.488;2024-01-06T02:28:33;-14.30;99.90
22633;DHT22;11483;55.828;37.488;2024-01-06T02:30:59;-14.30;99.90
22633;DHT22;11483;55.828;37.488;2024-01-06T02:33:25;-14.10;99.90
22633;DHT22;11483;55.828;37.488;2024-01-06T02:35:51;-14.30;99.90
22633;DHT22;11483;55.828;37.488;2024-01-06T02:38:18;-14.30;99.90
22633;DHT22;11483;55.828;37.488;2024-01-06T02:40:44;-14.20;99.90
22633;DHT22;11483;55.828;37.488;2024-01-06T02:43:10;-14.30;99.90
22633;DHT22;11483;55.828;37.488;2024-01-06T02:45:36;-14.30;99.90
22633;DHT22;11483;55.828;37.488;2024-01-06T02:48:02;-14.30;99.90
22633;DHT22;11483;55.828;37.488;2024-01-06T02:50:27;-14.30;99.90
22633;DHT22;11483;55.828;37.488;2024-01-06T02:52:53;-14.40;99.90
22633;DHT22;11483;55.828;37.488;2024-01-06T02:55:19;-14.50;99.90
22633;DHT22;11483;55.828;37.488;2024-01-06T02:57:45;-14.50;99.90
22633;DHT22;11483;55.828;37.488;2024-01-06T03:00:12;-14.50;99.90
22633;DHT22;11483;55.828;37.488;2024-01-06T03:02:38;-14.60;99.90
22633;DHT22;11483;55.828;37.488;2024-01-06T03:05:08;-14.60;99.90
22633;DHT22;11483;55.828;37.488;2024-01-06T03:07:34;-14.60;99.90
22633;DHT22;11483;55.828;37.488;2024-01-06T03:10:00;-14.60;99.90
22633;DHT22;11483;55.828;37.488;2024-01-06T03:12:26;-14.60;99.90
22633;DHT22;11483;55.828;37.488;2024-01-06T03:14:52;-14.60;99.90
22633;DHT22;11483;55.828;37.488;2024-01-06T03:17:18;-14.60;99.90
22633;DHT22;11483;55.828;37.488;2024-01-06T03:19:44;-14.50;99.90
22633;DHT22;11483;55.828;37.488;2024-01-06T03:22:10;-14.50;99.90
22633;DHT22;11483;55.828;37.488;2024-01-06T03:24:36;-14.50;99.90
22633;DHT22;11483;55.828;37.488;2024-01-06T03:27:02;-14.50;99.90
22633;DHT22;11483;55.828;37.488;2024-01-06T03:29:28;-14.40;99.90
22633;DHT22;11483;55.828;37.488;2024-01-06T03:31:54;-14.40;99.90
22633;DHT22;11483;55.828;37.488;2024-01-06T03:34:20;-14.40;99.90
22633;DHT22;11483;55.828;37.488;2024-01-06T03:36:46;-14.40;99.90
22633;DHT22;11483;55.828;37.488;2024-01-06T03:39:12;-14.20;99.90
22633;DHT22;11483;55.828;37.488;2024-01-06T03:41:39;-14.40;99.90
22633;DHT22;11483;55.828;37.488;2024-01-06T03:44:05;-14.40;99.90
22633;DHT22;11483;55.828;37.488;2024-01-06T03:46:33;-14.40;99.90
22633;DHT22;11483;55.828;37.488;2024-01-06T03:48:59;-14.40;99.90
22633;DHT22;11483;55.828;37.488;2024-01-06T03:51:25;-14.40;99.90
22633;DHT22;11483;55.828;37.488;2024-01-06T03:53:50;-14.40;99.90
22633;DHT22;11483;55.828;37.488;2024-01-06T03:56:16;-14.40;99.90
22633;DHT22;11483;55.828;37.488;2024-01-06T03:58:43;-14.40;99.90
22633;DHT22;11483;55.828;37.488;2024-01-06T04:01:10;-14.50;99.90
22633;DHT22;11483;55.828;37.488;2024-01-06T04:03:36;-14.40;99.90
22633;DHT22;11483;55.828;37.488;2024-01-06T04:06:02;-14.50;99.90
22633;DHT22;11483;55.828;37.488;2024-01-06T04:08:28;-14.60;99.90
22633;DHT22;11483;55.828;37.488;2024-01-06T04:10:54;-14.50;99.90
22633;DHT22;11483;55.828;37.488;2024-01-06T04:13:20;-14.50;99.90
22633;DHT22;11483;55.828;37.488;2024-01-06T04:15:46;-14.00;99.90
22633;DHT22;11483;55.828;37.488;2024-01-06T04:18:12;-14.30;99.90
22633;DHT22;11483;55.828;37.488;2024-01-06T04:20:38;-14.50;99.90
22633;DHT22;11483;55.828;37.488;2024-01-06T04:23:04;-14.50;99.90
22633;DHT22;11483;55.828;37.488;2024-01-06T04:25:30;-14.40;99.90
22633;DHT22;11483;55.828;37.488;2024-01-06T04:27:56;-14.40;99.90
22633;DHT22;11483;55.828;37.488;2024-01-06T04:30:22;-14.40;99.90
22633;DHT22;11483;55.828;37.488;2024-01-06T04:32:48;-14.40;99.90
22633;DHT22;11483;55.828;37.488;2024-01-06T04:35:14;-14.40;99.90
22633;DHT22;11483;55.828;37.488;2024-01-06T04:37:41;-14.40;99.90
22633;DHT22;11483;55.828;37.488;2024-01-06T04:40:07;-14.40;99.90
22633;DHT22;11483;55.828;37.488;2024-01-06T04:42:33;-14.40;99.90
22633;DHT22;11483;55.828;37.488;2024-01-06T04:44:59;-14.40;99.90
22633;DHT22;11483;55.828;37.488;2024-01-06T04:47:25;-14.30;99.90
22633;DHT22;11483;55.828;37.488;2024-01-06T04:49:52;-14.30;99.90
22633;DHT22;11483;55.828;37.488;2024-01-06T04:52:18;-14.30;99.90
22633;DHT22;11483;55.828;37.488;2024-01-06T04:54:44;-14.20;99.90
22633;DHT22;11483;55.828;37.488;2024-01-06T04:57:09;-14.20;99.90
22633;DHT22;11483;55.828;37.488;2024-01-06T04:59:35;-14.20;99.90
22633;DHT22;11483;55.828;37.488;2024-01-06T05:02:01;-14.30;99.90
22633;DHT22;11483;55.828;37.488;2024-01-06T05:04:27;-14.30;99.90
22633;DHT22;11483;55.828;37.488;2024-01-06T05:06:56;-14.40;99.90
22633;DHT22;11483;55.828;37.488;2024-01-06T05:09:22;-14.40;99.90
22633;DHT22;11483;55.828;37.488;2024-01-06T05:11:48;-14.40;99.90
22633;DHT22;11483;55.828;37.488;2024-01-06T05:14:13;-14.40;99.90
22633;DHT22;11483;55.828;37.488;2024-01-06T05:16:40;-14.40;99.90
22633;DHT22;11483;55.828;37.488;2024-01-06T05:19:06;-14.40;99.90
22633;DHT22;11483;55.828;37.488;2024-01-06T05:21:32;-14.50;99.90
22633;DHT22;11483;55.828;37.488;2024-01-06T05:23:58;-14.60;99.90
22633;DHT22;11483;55.828;37.488;2024-01-06T05:26:24;-14.70;99.90
22633;DHT22;11483;55.828;37.488;2024-01-06T05:28:50;-14.70;99.90
22633;DHT22;11483;55.828;37.488;2024-01-06T05:31:16;-14.70;99.90
22633;DHT22;11483;55.828;37.488;2024-01-06T05:33:42;-14.80;99.90
22633;DHT22;11483;55.828;37.488;2024-01-06T05:36:08;-14.70;99.90
22633;DHT22;11483;55.828;37.488;2024-01-06T05:38:34;-14.90;99.90
22633;DHT22;11483;55.828;37.488;2024-01-06T05:41:00;-15.00;99.90
22633;DHT22;11483;55.828;37.488;2024-01-06T05:43:26;-15.00;99.90
22633;DHT22;11483;55.828;37.488;2024-01-06T05:45:51;-15.10;99.90
22633;DHT22;11483;55.828;37.488;2024-01-06T05:48:17;-15.60;99.90
22633;DHT22;11483;55.828;37.488;2024-01-06T05:50:43;-15.20;99.90
22633;DHT22;11483;55.828;37.488;2024-01-06T05:53:09;-15.20;99.90
22633;DHT22;11483;55.828;37.488;2024-01-06T05:55:36;-15.20;99.90
22633;DHT22;11483;55.828;37.488;2024-01-06T05:58:02;-15.20;99.90
22633;DHT22;11483;55.828;37.488;2024-01-06T06:00:28;-15.20;99.90
22633;DHT22;11483;55.828;37.488;2024-01-06T06:02:57;-15.10;99.90
22633;DHT22;11483;55.828;37.488;2024-01-06T06:05:23;-15.10;99.90
22633;DHT22;11483;55.828;37.488;2024-01-06T06:07:49;-15.10;99.90
22633;DHT22;11483;55.828;37.488;2024-01-06T06:10:15;-15.00;99.90
22633;DHT22;11483;55.828;37.488;2024-01-06T06:12:44;-14.90;99.90
22633;DHT22;11483;55.828;37.488;2024-01-06T06:15:10;-14.90;99.90
22633;DHT22;11483;55.828;37.488;2024-01-06T06:17:37;-14.80;99.90
22633;DHT22;11483;55.828;37.488;2024-01-06T06:20:03;-14.70;99.90
22633;DHT22;11483;55.828;37.488;2024-01-06T06:22:29;-14.70;99.90
22633;DHT22;11483;55.828;37.488;2024-01-06T06:25:00;-14.70;99.90
22633;DHT22;11483;55.828;37.488;2024-01-06T06:27:27;-14.60;99.90
22633;DHT22;11483;55.828;37.488;2024-01-06T06:29:54;-14.60;99.90
22633;DHT22;11483;55.828;37.488;2024-01-06T06:32:20;-14.60;99.90
22633;DHT22;11483;55.828;37.488;2024-01-06T06:34:46;-14.60;99.90
22633;DHT22;11483;55.828;37.488;2024-01-06T06:37:12;-14.50;99.90
22633;DHT22;11483;55.828;37.488;2024-01-06T06:39:38;-14.50;99.90
22633;DHT22;11483;55.828;37.488;2024-01-06T06:42:04;-14.50;99.90
22633;DHT22;11483;55.828;37.488;2024-01-06T06:44:30;-14.50;99.90
22633;DHT22;11483;55.828;37.488;2024-01-06T06:46:56;-14.40;99.90
22633;DHT22;11483;55.828;37.488;2024-01-06T06:49:22;-14.40;99.90
22633;DHT22;11483;55.828;37.488;2024-01-06T06:51:48;-14.40;99.90
22633;DHT22;11483;55.828;37.488;2024-01-06T06:54:15;-14.40;99.90
22633;DHT22;11483;55.828;37.488;2024-01-06T06:56:45;-14.40;99.90
22633;DHT22;11483;55.828;37.488;2024-01-06T06:59:11;-14.40;99.90
22633;DHT22;11483;55.828;37.488;2024-01-06T07:01:37;-14.40;99.90
22633;DHT22;11483;55.828;37.488;2024-01-06T07:04:03;-14.30;99.90
22633;DHT22;11483;55.828;37.488;2024-01-06T07:06:29;-14.30;99.90
22633;DHT22;11483;55.828;37.488;2024-01-06T07:08:56;-14.30;99.90
22633;DHT22;11483;55.828;37.488;2024-01-06T07:11:22;-14.20;99.90
22633;DHT22;11483;55.828;37.488;2024-01-06T07:13:49;-14.20;99.90
22633;DHT22;11483;55.828;37.488;2024-01-06T07:16:15;-14.10;99.90
22633;DHT22;11483;55.828;37.488;2024-01-06T07:18:41;-14.00;99.90
22633;DHT22;11483;55.828;37.488;2024-01-06T07:21:07;-14.00;99.90
22633;DHT22;11483;55.828;37.488;2024-01-06T07:23:33;-13.90;99.90
22633;DHT22;11483;55.828;37.488;2024-01-06T07:25:59;-13.80;99.90
22633;DHT22;11483;55.828;37.488;2024-01-06T07:28:26;-13.70;99.90
22633;DHT22;11483;55.828;37.488;2024-01-06T07:30:52;-13.70;99.90
22633;DHT22;11483;55.828;37.488;2024-01-06T07:33:18;-13.60;99.90
22633;DHT22;11483;55.828;37.488;2024-01-06T07:35:45;-13.50;99.90
22633;DHT22;11483;55.828;37.488;2024-01-06T07:38:12;-13.50;99.90
22633;DHT22;11483;55.828;37.488;2024-01-06T07:40:38;-13.40;99.90
22633;DHT22;11483;55.828;37.488;2024-01-06T07:43:04;-13.30;99.90
22633;DHT22;11483;55.828;37.488;2024-01-06T07:45:30;-13.40;99.90
22633;DHT22;11483;55.828;37.488;2024-01-06T07:47:58;-13.30;99.90
22633;DHT22;11483;55.828;37.488;2024-01-06T07:50:24;-13.30;99.90
22633;DHT22;11483;55.828;37.488;2024-01-06T07:52:50;-13.30;99.90
22633;DHT22;11483;55.828;37.488;2024-01-06T07:55:17;-13.30;99.90
22633;DHT22;11483;55.828;37.488;2024-01-06T07:57:44;-13.40;99.90
22633;DHT22;11483;55.828;37.488;2024-01-06T08:00:10;-13.30;99.90
22633;DHT22;11483;55.828;37.488;2024-01-06T08:02:40;-13.30;99.90
22633;DHT22;11483;55.828;37.488;2024-01-06T08:05:06;-13.30;99.90
22633;DHT22;11483;55.828;37.488;2024-01-06T08:07:33;-13.30;99.90
22633;DHT22;11483;55.828;37.488;2024-01-06T08:09:59;-13.10;99.90
22633;DHT22;11483;55.828;37.488;2024-01-06T08:12:25;-12.90;99.90
22633;DHT22;11483;55.828;37.488;2024-01-06T08:14:51;-12.70;99.90
22633;DHT22;11483;55.828;37.488;2024-01-06T08:17:17;-12.50;99.90
22633;DHT22;11483;55.828;37.488;2024-01-06T08:19:43;-12.20;99.90
22633;DHT22;11483;55.828;37.488;2024-01-06T08:22:09;-12.20;99.90
22633;DHT22;11483;55.828;37.488;2024-01-06T08:24:35;-12.20;99.90
22633;DHT22;11483;55.828;37.488;2024-01-06T08:27:01;-12.30;99.90
22633;DHT22;11483;55.828;37.488;2024-01-06T08:29:27;-12.30;99.90
22633;DHT22;11483;55.828;37.488;2024-01-06T08:31:52;-12.50;99.90
22633;DHT22;11483;55.828;37.488;2024-01-06T08:34:20;-12.50;99.90
22633;DHT22;11483;55.828;37.488;2024-01-06T08:36:46;-12.50;99.90
22633;DHT22;11483;55.828;37.488;2024-01-06T08:39:12;-12.30;99.90
22633;DHT22;11483;55.828;37.488;2024-01-06T08:41:38;-12.10;99.90
22633;DHT22;11483;55.828;37.488;2024-01-06T08:44:04;-12.00;99.90
22633;DHT22;11483;55.828;37.488;2024-01-06T08:46:30;-12.00;99.90
22633;DHT22;11483;55.828;37.488;2024-01-06T08:48:56;-11.90;99.90
22633;DHT22;11483;55.828;37.488;2024-01-06T08:51:22;-12.00;99.90
22633;DHT22;11483;55.828;37.488;2024-01-06T08:53:49;-12.00;99.90
22633;DHT22;11483;55.828;37.488;2024-01-06T08:56:15;-12.00;99.90
22633;DHT22;11483;55.828;37.488;2024-01-06T08:58:43;-12.00;99.90
22633;DHT22;11483;55.828;37.488;2024-01-06T09:01:10;-12.10;99.90
22633;DHT22;11483;55.828;37.488;2024-01-06T09:03:36;-12.00;99.90
22633;DHT22;11483;55.828;37.488;2024-01-06T09:06:02;-12.00;99.90
22633;DHT22;11483;55.828;37.488;2024-01-06T09:08:28;-12.00;99.90
22633;DHT22;11483;55.828;37.488;2024-01-06T09:10:55;-12.00;99.90
22633;DHT22;11483;55.828;37.488;2024-01-06T09:13:23;-12.00;99.90
22633;DHT22;11483;55.828;37.488;2024-01-06T09:15:52;-11.80;99.90
22633;DHT22;11483;55.828;37.488;2024-01-06T09:18:18;-11.70;99.90
22633;DHT22;11483;55.828;37.488;2024-01-06T09:20:44;-11.60;99.90
22633;DHT22;11483;55.828;37.488;2024-01-06T09:23:13;-11.60;99.90
22633;DHT22;11483;55.828;37.488;2024-01-06T09:25:39;-11.60;99.90
22633;DHT22;11483;55.828;37.488;2024-01-06T09:28:08;-11.40;99.90
22633;DHT22;11483;55.828;37.488;2024-01-06T09:30:33;-11.20;99.90
22633;DHT22;11483;55.828;37.488;2024-01-06T09:32:59;-11.10;99.90
22633;DHT22;11483;55.828;37.488;2024-01-06T09:35:26;-11.00;99.90
22633;DHT22;11483;55.828;37.488;2024-01-06T09:37:51;-10.80;99.90
22633;DHT22;11483;55.828;37.488;2024-01-06T09:40:22;-10.60;99.90
22633;DHT22;11483;55.828;37.488;2024-01-06T09:42:52;-10.40;99.90
22633;DHT22;11483;55.828;37.488;2024-01-06T09:45:21;-10.30;99.90
22633;DHT22;11483;55.828;37.488;2024-01-06T09:47:51;-10.30;99.90
22633;DHT22;11483;55.828;37.488;2024-01-06T09:50:20;-10.40;99.90
22633;DHT22;11483;55.828;37.488;2024-01-06T09:52:48;-10.40;99.90
22633;DHT22;11483;55.828;37.488;2024-01-06T09:55:24;-10.40;99.90
22633;DHT22;11483;55.828;37.488;2024-01-06T09:57:53;-10.50;99.90
22633;DHT22;11483;55.828;37.488;2024-01-06T10:00:20;-10.50;99.90
22633;DHT22;11483;55.828;37.488;2024-01-06T10:02:47;-10.40;99.90
22633;DHT22;11483;55.828;37.488;2024-01-06T10:05:15;-10.30;99.90
22633;DHT22;11483;55.828;37.488;2024-01-06T10:07:48;-10.20;99.90
22633;DHT22;11483;55.828;37.488;2024-01-06T10:10:14;-10.30;99.90
22633;DHT22;11483;55.828;37.488;2024-01-06T10:12:41;-10.20;99.90
22633;DHT22;11483;55.828;37.488;2024-01-06T10:15:11;-10.10;99.90
22633;DHT22;11483;55.828;37.488;2024-01-06T10:17:38;-10.00;99.90
22633;DHT22;11483;55.828;37.488;2024-01-06T10:20:09;-9.80;99.90
22633;DHT22;11483;55.828;37.488;2024-01-06T10:22:36;-9.60;99.90
22633;DHT22;11483;55.828;37.488;2024-01-06T10:25:05;-9.60;99.90
22633;DHT22;11483;55.828;37.488;2024-01-06T10:27:33;-9.80;99.90
22633;DHT22;11483;55.828;37.488;2024-01-06T10:30:01;-9.90;99.90
22633;DHT22;11483;55.828;37.488;2024-01-06T10:32:30;-10.00;99.90
22633;DHT22;11483;55.828;37.488;2024-01-06T10:34:56;-10.00;99.90
22633;DHT22;11483;55.828;37.488;2024-01-06T10:37:23;-10.10;99.90
22633;DHT22;11483;55.828;37.488;2024-01-06T10:40:11;-10.20;99.90
22633;DHT22;11483;55.828;37.488;2024-01-06T10:42:39;-10.30;99.90
22633;DHT22;11483;55.828;37.488;2024-01-06T10:45:15;-10.50;99.90
22633;DHT22;11483;55.828;37.488;2024-01-06T10:47:42;-10.50;99.90
22633;DHT22;11483;55.828;37.488;2024-01-06T10:50:09;-10.40;99.90
22633;DHT22;11483;55.828;37.488;2024-01-06T10:52:35;-10.30;99.90
22633;DHT22;11483;55.828;37.488;2024-01-06T10:55:04;-10.30;99.90
22633;DHT22;11483;55.828;37.488;2024-01-06T10:57:31;-10.30;99.90
22633;DHT22;11483;55.828;37.488;2024-01-06T10:59:58;-10.30;99.90
22633;DHT22;11483;55.828;37.488;2024-01-06T11:02:26;-10.40;99.90
22633;DHT22;11483;55.828;37.488;2024-01-06T11:04:52;-10.50;99.90
22633;DHT22;11483;55.828;37.488;2024-01-06T11:07:20;-10.50;99.90
22633;DHT22;11483;55.828;37.488;2024-01-06T11:09:55;-10.50;99.90
22633;DHT22;11483;55.828;37.488;2024-01-06T11:12:22;-10.50;99.90
22633;DHT22;11483;55.828;37.488;2024-01-06T11:14:48;-10.50;99.90
22633;DHT22;11483;55.828;37.488;2024-01-06T11:17:53;-10.40;99.90
22633;DHT22;11483;55.828;37.488;2024-01-06T11:20:19;-10.40;99.90
22633;DHT22;11483;55.828;37.488;2024-01-06T11:22:50;-10.60;99.90
22633;DHT22;11483;55.828;37.488;2024-01-06T11:25:18;-10.60;99.90
22633;DHT22;11483;55.828;37.488;2024-01-06T11:27:47;-10.70;99.90
22633;DHT22;11483;55.828;37.488;2024-01-06T11:30:26;-10.80;99.90
22633;DHT22;11483;55.828;37.488;2024-01-06T11:32:56;-10.80;99.90
22633;DHT22;11483;55.828;37.488;2024-01-06T11:35:26;-10.70;99.90
22633;DHT22;11483;55.828;37.488;2024-01-06T11:37:55;-10.80;99.90
22633;DHT22;11483;55.828;37.488;2024-01-06T11:42:48;-10.70;99.90
22633;DHT22;11483;55.828;37.488;2024-01-06T11:45:14;-10.60;99.90
22633;DHT22;11483;55.828;37.488;2024-01-06T11:47:48;-10.60;99.90
22633;DHT22;11483;55.828;37.488;2024-01-06T11:50:14;-10.50;99.90
22633;DHT22;11483;55.828;37.488;2024-01-06T11:52:41;-10.50;99.90
22633;DHT22;11483;55.828;37.488;2024-01-06T11:55:08;-10.50;99.90
22633;DHT22;11483;55.828;37.488;2024-01-06T11:57:35;-10.40;99.90
22633;DHT22;11483;55.828;37.488;2024-01-06T12:00:01;-10.40;99.90
22633;DHT22;11483;55.828;37.488;2024-01-06T12:02:29;-10.30;99.90
22633;DHT22;11483;55.828;37.488;2024-01-06T12:04:55;-10.30;99.90
22633;DHT22;11483;55.828;37.488;2024-01-06T12:07:22;-10.20;99.90
22633;DHT22;11483;55.828;37.488;2024-01-06T12:09:48;-10.30;99.90
22633;DHT22;11483;55.828;37.488;2024-01-06T12:12:18;-10.30;99.90
22633;DHT22;11483;55.828;37.488;2024-01-06T12:14:44;-10.40;99.90
22633;DHT22;11483;55.828;37.488;2024-01-06T12:17:12;-10.50;99.90
22633;DHT22;11483;55.828;37.488;2024-01-06T12:19:39;-10.60;99.90
22633;DHT22;11483;55.828;37.488;2024-01-06T12:22:09;-10.60;99.90
22633;DHT22;11483;55.828;37.488;2024-01-06T12:24:36;-10.60;99.90
22633;DHT22;11483;55.828;37.488;2024-01-06T12:27:02;-10.70;99.90
22633;DHT22;11483;55.828;37.488;2024-01-06T12:29:28;-10.70;99.90
22633;DHT22;11483;55.828;37.488;2024-01-06T12:31:55;-10.80;99.90
22633;DHT22;11483;55.828;37.488;2024-01-06T12:34:21;-10.80;99.90
22633;DHT22;11483;55.828;37.488;2024-01-06T12:36:52;-10.90;99.90
22633;DHT22;11483;55.828;37.488;2024-01-06T12:39:21;-11.00;99.90
22633;DHT22;11483;55.828;37.488;2024-01-06T12:41:46;-11.00;99.90
22633;DHT22;11483;55.828;37.488;2024-01-06T12:44:12;-11.10;99.90
22633;DHT22;11483;55.828;37.488;2024-01-06T12:46:39;-11.20;99.90
22633;DHT22;11483;55.828;37.488;2024-01-06T12:49:05;-11.20;99.90
22633;DHT22;11483;55.828;37.488;2024-01-06T12:51:30;-11.20;99.90
22633;DHT22;11483;55.828;37.488;2024-01-06T12:53:56;-11.20;99.90
22633;DHT22;11483;55.828;37.488;2024-01-06T12:56:22;-11.30;99.90
22633;DHT22;11483;55.828;37.488;2024-01-06T12:58:48;-11.30;99.90
22633;DHT22;11483;55.828;37.488;2024-01-06T13:01:14;-11.30;99.90
22633;DHT22;11483;55.828;37.488;2024-01-06T13:03:40;-11.40;99.90
22633;DHT22;11483;55.828;37.488;2024-01-06T13:06:06;-11.40;99.90
22633;DHT22;11483;55.828;37.488;2024-01-06T13:08:33;-11.30;99.90
22633;DHT22;11483;55.828;37.488;2024-01-06T13:10:58;-11.30;99.90
22633;DHT22;11483;55.828;37.488;2024-01-06T13:13:24;-11.30;99.90
22633;DHT22;11483;55.828;37.488;2024-01-06T13:15:50;-11.30;99.90
22633;DHT22;11483;55.828;37.488;2024-01-06T13:18:16;-11.30;99.90
22633;DHT22;11483;55.828;37.488;2024-01-06T13:20:45;-11.30;99.90
22633;DHT22;11483;55.828;37.488;2024-01-06T13:23:11;-11.30;99.90
22633;DHT22;11483;55.828;37.488;2024-01-06T13:25:37;-11.30;99.90
22633;DHT22;11483;55.828;37.488;2024-01-06T13:28:06;-11.40;99.90
22633;DHT22;11483;55.828;37.488;2024-01-06T13:30:33;-11.50;99.90
22633;DHT22;11483;55.828;37.488;2024-01-06T13:32:59;-11.50;99.90
22633;DHT22;11483;55.828;37.488;2024-01-06T13:35:26;-11.60;99.90
22633;DHT22;11483;55.828;37.488;2024-01-06T13:37:53;-11.60;99.90
22633;DHT22;11483;55.828;37.488;2024-01-06T13:40:19;-11.60;99.90
22633;DHT22;11483;55.828;37.488;2024-01-06T13:42:47;-11.60;99.90
22633;DHT22;11483;55.828;37.488;2024-01-06T13:45:13;-11.60;99.90
22633;DHT22;11483;55.828;37.488;2024-01-06T13:47:39;-11.60;99.90
22633;DHT22;11483;55.828;37.488;2024-01-06T13:50:16;-11.70;99.90
22633;DHT22;11483;55.828;37.488;2024-01-06T13:52:42;-11.70;99.90
22633;DHT22;11483;55.828;37.488;2024-01-06T13:55:09;-11.70;99.90
22633;DHT22;11483;55.828;37.488;2024-01-06T13:57:36;-11.60;99.90
22633;DHT22;11483;55.828;37.488;2024-01-06T14:00:09;-11.70;99.90
22633;DHT22;11483;55.828;37.488;2024-01-06T14:02:37;-11.70;99.90
22633;DHT22;11483;55.828;37.488;2024-01-06T14:05:04;-11.70;99.90
22633;DHT22;11483;55.828;37.488;2024-01-06T14:07:30;-11.70;99.90
22633;DHT22;11483;55.828;37.488;2024-01-06T14:09:56;-11.80;99.90
22633;DHT22;11483;55.828;37.488;2024-01-06T14:12:23;-11.70;99.90
22633;DHT22;11483;55.828;37.488;2024-01-06T14:14:49;-11.60;99.90
22633;DHT22;11483;55.828;37.488;2024-01-06T14:17:15;-11.60;99.90
22633;DHT22;11483;55.828;37.488;2024-01-06T14:19:41;-11.60;99.90
22633;DHT22;11483;55.828;37.488;2024-01-06T14:22:07;-11.60;99.90
22633;DHT22;11483;55.828;37.488;2024-01-06T14:24:33;-11.60;99.90
22633;DHT22;11483;55.828;37.488;2024-01-06T14:27:01;-11.70;99.90
22633;DHT22;11483;55.828;37.488;2024-01-06T14:29:28;-11.70;99.90
22633;DHT22;11483;55.828;37.488;2024-01-06T14:31:55;-11.70;99.90
22633;DHT22;11483;55.828;37.488;2024-01-06T14:34:22;-11.70;99.90
22633;DHT22;11483;55.828;37.488;2024-01-06T14:36:48;-11.70;99.90
22633;DHT22;11483;55.828;37.488;2024-01-06T14:39:17;-11.60;99.90
22633;DHT22;11483;55.828;37.488;2024-01-06T14:41:47;-11.60;99.90
22633;DHT22;11483;55.828;37.488;2024-01-06T14:44:13;-11.60;99.90
22633;DHT22;11483;55.828;37.488;2024-01-06T14:46:39;-11.50;99.90
22633;DHT22;11483;55.828;37.488;2024-01-06T14:49:07;-11.60;99.90
22633;DHT22;11483;55.828;37.488;2024-01-06T14:51:33;-11.70;99.90
22633;DHT22;11483;55.828;37.488;2024-01-06T14:53:59;-11.70;99.90
22633;DHT22;11483;55.828;37.488;2024-01-06T14:56:25;-11.70;99.90
22633;DHT22;11483;55.828;37.488;2024-01-06T14:58:51;-11.60;99.90
22633;DHT22;11483;55.828;37.488;2024-01-06T15:01:17;-11.60;99.90
22633;DHT22;11483;55.828;37.488;2024-01-06T15:03:43;-11.60;99.90